Time;durP1;ratioP1;P1;durP2;ratioP2;P2;SDS_P1;SDS_P2;PMS_P1;PMS_P2;Temp;Humidity;BMP_temperature;BMP_pressure;BME280_temperature;BME280_humidity;BME280_pressure;Samples;Min_cycle;Max_cycle;Signal;HPM_P1;HPM_P2
2023/12/09 00:01:39;;;;;;;121.25;37.42;;;;;;;0.27;100.00;100612.72;5006754;28;20037;-76
2023/12/09 00:04:05;;;;;;;108.20;37.45;;;;;;;0.50;100.00;100627.81;4995284;28;20034;-76
2023/12/09 00:06:30;;;;;;;123.65;35.60;;;;;;;0.37;100.00;100630.38;4988465;28;20030;-76
2023/12/09 00:08:55;;;;;;;115.10;33.80;;;;;;;0.47;100.00;100635.91;4988487;28;20068;-76
2023/12/09 00:11:21;;;;;;;107.88;36.38;;;;;;;0.52;100.00;100630.34;5005915;28;20045;-75
2023/12/09 00:13:46;;;;;;;119.05;39.40;;;;;;;0.55;100.00;100627.50;4987207;28;20048;-75
2023/12/09 00:16:11;;;;;;;96.45;34.60;;;;;;;0.55;100.00;100636.22;5006173;28;20116;-75
2023/12/09 00:18:37;;;;;;;132.00;40.40;;;;;;;0.47;100.00;100608.75;5004537;28;20030;-75
2023/12/09 00:21:02;;;;;;;152.57;42.00;;;;;;;0.38;100.00;100620.75;5005726;28;20125;-75
2023/12/09 00:23:28;;;;;;;136.23;39.38;;;;;;;0.43;100.00;100616.03;5005650;28;20042;-75
2023/12/09 00:25:53;;;;;;;127.97;35.90;;;;;;;0.51;100.00;100631.28;5005874;28;20366;-75
2023/12/09 00:28:18;;;;;;;106.25;31.92;;;;;;;0.58;100.00;100633.38;5005720;28;20548;-76
2023/12/09 00:30:44;;;;;;;112.40;35.08;;;;;;;0.47;100.00;100635.03;5004690;28;20034;-75
2023/12/09 00:33:09;;;;;;;135.32;39.55;;;;;;;0.40;100.00;100605.72;4971972;28;20034;-75
2023/12/09 00:35:34;;;;;;;127.78;36.25;;;;;;;0.31;100.00;100604.53;5007249;28;20512;-75
2023/12/09 00:38:00;;;;;;;139.93;36.80;;;;;;;0.38;100.00;100600.56;4993995;28;20041;-75
2023/12/09 00:40:25;;;;;;;151.48;42.75;;;;;;;0.28;100.00;100602.13;5007015;28;20160;-75
2023/12/09 00:42:50;;;;;;;120.43;36.55;;;;;;;0.43;100.00;100596.81;5008301;28;20593;-75
2023/12/09 00:45:16;;;;;;;115.97;37.38;;;;;;;0.41;100.00;100599.53;5008330;28;20037;-77
2023/12/09 00:47:41;;;;;;;173.23;46.85;;;;;;;0.33;100.00;100607.06;5008749;28;20042;-76
2023/12/09 00:50:07;;;;;;;136.35;40.53;;;;;;;0.34;100.00;100612.22;4991532;28;20034;-75
2023/12/09 00:52:32;;;;;;;124.68;38.22;;;;;;;0.50;100.00;100622.56;4990938;28;20025;-75
2023/12/09 00:55:00;;;;;;;153.38;38.95;;;;;;;0.41;100.00;100610.03;5008921;28;20037;-75
2023/12/09 00:57:25;;;;;;;163.20;40.88;;;;;;;0.28;100.00;100615.25;5008652;28;20034;-75
2023/12/09 00:59:51;;;;;;;145.27;40.78;;;;;;;0.43;100.00;100613.41;5008708;28;20049;-75
2023/12/09 01:02:16;;;;;;;163.13;47.97;;;;;;;0.49;100.00;100627.91;4987659;28;20053;-75
2023/12/09 01:04:42;;;;;;;155.57;41.88;;;;;;;0.50;100.00;100625.19;4990849;28;20026;-75
2023/12/09 01:07:07;;;;;;;144.77;41.03;;;;;;;0.54;100.00;100631.06;5008612;28;20029;-75
2023/12/09 01:09:32;;;;;;;143.38;40.70;;;;;;;0.62;100.00;100634.03;4999077;28;20032;-75
2023/12/09 01:11:58;;;;;;;183.95;44.85;;;;;;;0.34;100.00;100622.72;4990855;28;20057;-75
2023/12/09 01:14:23;;;;;;;168.63;43.28;;;;;;;0.22;100.00;100623.50;5008621;28;20077;-76
2023/12/09 01:16:48;;;;;;;137.45;41.63;;;;;;;0.49;100.00;100641.03;5008715;28;20997;-75
2023/12/09 01:19:14;;;;;;;183.40;42.28;;;;;;;0.56;100.00;100640.56;5008719;28;20400;-75
2023/12/09 01:21:39;;;;;;;184.75;44.97;;;;;;;0.51;100.00;100641.78;5008118;28;20116;-75
2023/12/09 01:24:05;;;;;;;186.77;44.25;;;;;;;0.54;100.00;100636.31;5014565;28;20029;-75
2023/12/09 01:26:31;;;;;;;199.98;42.45;;;;;;;0.27;100.00;100626.69;4993232;28;20025;-75
2023/12/09 01:28:57;;;;;;;200.02;45.28;;;;;;;0.52;100.00;100639.06;5008320;28;20045;-76
2023/12/09 01:31:22;;;;;;;;;;;;;;;0.43;100.00;100638.81;5004582;28;20069;-76
2023/12/09 01:33:47;;;;;;;214.93;47.60;;;;;;;0.53;100.00;100648.63;4994382;28;19967;-75
2023/12/09 01:36:13;;;;;;;192.55;44.47;;;;;;;0.64;100.00;100642.66;5012782;28;20125;-76
2023/12/09 01:38:38;;;;;;;193.05;46.50;;;;;;;0.59;100.00;100639.50;5008282;28;20258;-76
2023/12/09 01:41:03;;;;;;;228.45;48.80;;;;;;;0.33;100.00;100628.91;4996557;28;20033;-75
2023/12/09 01:43:29;;;;;;;228.10;51.08;;;;;;;0.32;100.00;100637.72;5009723;28;20044;-75
2023/12/09 01:46:04;;;;;;;208.20;48.15;;;;;;;0.38;100.00;100639.13;4995311;28;20063;-75
2023/12/09 01:48:30;;;;;;;247.30;51.45;;;;;;;0.58;100.00;100651.78;5000533;28;20554;-75
2023/12/09 01:50:55;;;;;;;180.00;45.58;;;;;;;0.60;100.00;100655.16;4987509;28;20010;-75
2023/12/09 01:53:21;;;;;;;238.73;49.42;;;;;;;0.66;100.00;100646.03;5003759;28;20188;-75
2023/12/09 01:55:46;;;;;;;198.20;49.95;;;;;;;0.73;100.00;100644.69;5007889;28;20026;-75
2023/12/09 01:58:12;;;;;;;237.70;51.05;;;;;;;0.78;100.00;100637.34;4990060;28;20397;-76
2023/12/09 02:00:39;;;;;;;201.32;48.40;;;;;;;0.61;100.00;100616.59;5007659;28;20124;-75
2023/12/09 02:03:04;;;;;;;292.23;51.88;;;;;;;0.58;100.00;100617.63;5006606;28;20026;-75
2023/12/09 02:05:30;;;;;;;253.63;51.33;;;;;;;0.60;100.00;100628.88;4971679;28;20033;-75
2023/12/09 02:07:56;;;;;;;;;;;;;;;0.41;100.00;100616.13;5008111;28;20033;-78
2023/12/09 02:10:21;;;;;;;209.60;48.40;;;;;;;0.62;100.00;100615.66;5004335;28;19916;-75
2023/12/09 02:13:00;;;;;;;224.77;49.33;;;;;;;0.43;100.00;100599.44;5026858;28;20033;-76
2023/12/09 02:15:37;;;;;;;277.40;48.95;;;;;;;0.51;100.00;100607.63;5026845;28;20045;-76
2023/12/09 02:18:05;;;;;;;274.25;50.35;;;;;;;0.41;100.00;100602.97;5009237;28;20037;-75
2023/12/09 02:20:31;;;;;;;223.90;47.55;;;;;;;0.37;100.00;100600.66;5026844;28;20498;-76
2023/12/09 02:23:03;;;;;;;212.68;48.10;;;;;;;0.39;100.00;100604.84;5008934;28;20042;-76
2023/12/09 02:25:28;;;;;;;226.75;47.13;;;;;;;0.38;100.00;100603.19;5009204;28;20044;-75
2023/12/09 02:27:57;;;;;;;193.02;44.50;;;;;;;0.31;100.00;100598.44;4998397;28;20034;-75
2023/12/09 02:30:36;;;;;;;212.07;50.08;;;;;;;0.58;100.00;100608.91;5020508;28;20108;-75
2023/12/09 02:33:04;;;;;;;256.25;49.40;;;;;;;0.21;100.00;100587.66;4997445;28;20048;-75
2023/12/09 02:35:35;;;;;;;211.80;45.58;;;;;;;0.38;100.00;100600.56;5010154;28;20454;-75
2023/12/09 02:38:03;;;;;;;179.48;44.85;;;;;;;0.67;100.00;100615.34;5013844;28;20034;-76
2023/12/09 02:40:29;;;;;;;248.25;52.05;;;;;;;0.71;100.00;100619.47;5022722;28;20021;-75
2023/12/09 02:42:55;;;;;;;214.05;44.22;;;;;;;0.63;100.00;100620.81;5026270;28;20030;-75
2023/12/09 02:45:20;;;;;;;196.57;44.40;;;;;;;0.80;100.00;100629.34;5006295;28;20107;-75
2023/12/09 02:47:47;;;;;;;172.02;45.45;;;;;;;0.77;100.00;100622.53;5004137;28;20133;-75
2023/12/09 02:50:13;;;;;;;234.77;47.58;;;;;;;0.70;100.00;100618.59;5008748;28;20049;-76
2023/12/09 02:52:39;;;;;;;265.60;48.55;;;;;;;0.51;100.00;100605.00;5021749;28;20026;-76
2023/12/09 02:55:05;;;;;;;192.07;45.40;;;;;;;0.52;100.00;100604.91;4998691;28;20473;-75
2023/12/09 02:57:31;;;;;;;211.05;45.65;;;;;;;0.61;100.00;100606.09;4985399;28;20036;-77
2023/12/09 02:59:56;;;;;;;272.50;51.58;;;;;;;0.49;100.00;100588.50;5026163;28;20124;-76
2023/12/09 03:02:21;;;;;;;266.17;49.80;;;;;;;0.36;100.00;100578.81;5008456;28;20025;-75
2023/12/09 03:04:47;;;;;;;218.27;46.83;;;;;;;0.44;100.00;100578.28;5007438;28;20032;-75
2023/12/09 03:07:12;;;;;;;201.32;44.88;;;;;;;0.49;100.00;100572.72;5025834;28;20574;-75
2023/12/09 03:09:37;;;;;;;267.38;49.28;;;;;;;0.64;100.00;100590.13;5004228;28;20481;-75
2023/12/09 03:12:03;;;;;;;228.20;48.50;;;;;;;0.75;100.00;100587.63;4998930;28;20025;-75
2023/12/09 03:14:29;;;;;;;246.05;51.58;;;;;;;0.53;100.00;100579.47;5015261;28;20065;-75
2023/12/09 03:16:54;;;;;;;214.73;47.38;;;;;;;0.68;100.00;100580.22;5025825;28;20029;-75
2023/12/09 03:19:19;;;;;;;297.95;51.90;;;;;;;0.66;100.00;100580.34;5008016;28;20033;-75
2023/12/09 03:21:45;;;;;;;322.00;52.67;;;;;;;0.72;100.00;100576.47;5022385;28;20076;-75
2023/12/09 03:24:10;;;;;;;260.77;51.22;;;;;;;0.78;100.00;100576.88;5020534;28;20048;-76
2023/12/09 03:26:36;;;;;;;284.30;52.75;;;;;;;0.96;100.00;100576.56;5025023;28;20030;-75
2023/12/09 03:29:01;;;;;;;311.17;49.10;;;;;;;0.95;100.00;100577.53;5007632;28;20056;-76
2023/12/09 03:31:26;;;;;;;251.32;44.45;;;;;;;0.95;100.00;100572.28;5007756;28;20546;-75
2023/12/09 03:33:52;;;;;;;283.33;52.15;;;;;;;0.71;100.00;100565.09;5025438;28;20056;-75
2023/12/09 03:36:17;;;;;;;314.10;48.10;;;;;;;0.94;100.00;100574.06;5008070;28;20033;-76
2023/12/09 03:38:42;;;;;;;263.73;49.42;;;;;;;0.94;100.00;100581.94;5007967;28;20562;-75
2023/12/09 03:41:09;;;;;;;254.73;48.83;;;;;;;0.94;100.00;100581.13;5025594;28;20394;-75
2023/12/09 03:43:35;;;;;;;396.13;54.63;;;;;;;0.96;100.00;100579.19;5024639;28;20040;-75
2023/12/09 03:46:01;;;;;;;335.98;50.15;;;;;;;0.78;100.00;100558.50;5007726;28;20075;-76
2023/12/09 03:48:28;;;;;;;216.27;42.03;;;;;;;0.94;100.00;100568.81;5006654;28;20037;-76
2023/12/09 03:50:53;;;;;;;184.82;40.75;;;;;;;0.90;100.00;100569.13;5003863;28;20022;-75
2023/12/09 03:53:19;;;;;;;173.55;38.40;;;;;;;1.04;100.00;100571.66;5003552;28;20531;-76
2023/12/09 03:55:44;;;;;;;226.45;45.28;;;;;;;1.09;100.00;100573.97;5007803;28;20090;-76
2023/12/09 03:58:10;;;;;;;238.25;44.47;;;;;;;1.05;100.00;100566.28;5007542;28;20056;-75
2023/12/09 04:00:36;;;;;;;276.20;47.95;;;;;;;1.13;100.00;100573.63;5007467;28;20048;-76
2023/12/09 04:03:02;;;;;;;276.88;46.85;;;;;;;1.00;100.00;100567.53;5024861;28;20028;-76
2023/12/09 04:05:28;;;;;;;213.70;44.95;;;;;;;0.95;100.00;100565.22;5007632;28;20519;-75
2023/12/09 04:07:53;;;;;;;166.35;37.78;;;;;;;1.10;100.00;100567.75;5024981;28;20018;-75
2023/12/09 04:10:18;;;;;;;293.08;47.15;;;;;;;0.91;100.00;100553.22;5025019;28;20030;-75
2023/12/09 04:12:44;;;;;;;256.95;41.20;;;;;;;0.97;100.00;100555.44;5007080;28;20213;-75
2023/12/09 04:15:11;;;;;;;245.65;44.38;;;;;;;1.15;100.00;100557.78;5007658;28;20034;-75
2023/12/09 04:17:37;;;;;;;268.85;43.63;;;;;;;1.19;100.00;100549.53;5028010;28;20056;-76
2023/12/09 04:20:05;;;;;;;327.13;48.10;;;;;;;1.12;100.00;100543.00;5011664;28;20032;-76
2023/12/09 04:22:30;;;;;;;248.27;43.83;;;;;;;1.08;100.00;100546.81;5027671;28;20086;-76
2023/12/09 04:24:56;;;;;;;192.27;39.33;;;;;;;1.09;100.00;100542.41;5028895;28;20025;-76
2023/12/09 04:27:21;;;;;;;229.48;39.67;;;;;;;1.08;100.00;100545.97;5028800;28;20065;-76
2023/12/09 04:29:47;;;;;;;172.88;37.80;;;;;;;1.25;100.00;100557.00;5011417;28;20029;-76
2023/12/09 04:32:12;;;;;;;230.98;41.47;;;;;;;1.10;100.00;100544.94;4992566;28;20038;-76
2023/12/09 04:34:38;;;;;;;279.25;42.92;;;;;;;1.27;100.00;100552.47;5026896;28;20033;-75
2023/12/09 04:37:03;;;;;;;378.30;51.20;;;;;;;1.14;100.00;100541.13;5027480;28;20479;-75
2023/12/09 04:39:29;;;;;;;187.75;41.75;;;;;;;1.31;100.00;100544.38;5028751;28;20034;-75
2023/12/09 04:41:54;;;;;;;392.40;56.10;;;;;;;1.39;100.00;100545.50;5010567;28;20053;-76
2023/12/09 04:44:22;;;;;;;263.60;41.47;;;;;;;1.39;100.00;100536.78;5010973;28;20033;-76
2023/12/09 04:46:48;;;;;;;389.92;48.65;;;;;;;1.22;100.00;100528.28;5010889;28;20480;-75
2023/12/09 04:49:13;;;;;;;369.15;44.60;;;;;;;1.24;100.00;100531.66;5028718;28;20028;-76
2023/12/09 04:51:39;;;;;;;256.48;44.50;;;;;;;1.25;100.00;100532.50;5010475;28;20050;-76
2023/12/09 04:54:04;;;;;;;435.25;51.05;;;;;;;1.26;100.00;100526.28;5010767;28;20041;-75
2023/12/09 04:56:30;;;;;;;352.85;48.75;;;;;;;1.12;100.00;100521.97;4998695;28;20084;-76
2023/12/09 04:58:55;;;;;;;261.73;43.85;;;;;;;1.35;100.00;100527.41;5001945;28;20022;-75
2023/12/09 05:01:21;;;;;;;207.18;44.03;;;;;;;1.29;100.00;100514.69;5009288;28;20038;-76
2023/12/09 05:03:47;;;;;;;327.70;45.92;;;;;;;1.34;100.00;100521.34;4994200;28;20069;-76
2023/12/09 05:06:12;;;;;;;439.58;52.95;;;;;;;1.26;100.00;100506.09;5010677;28;20041;-76
2023/12/09 05:08:39;;;;;;;392.23;51.72;;;;;;;1.24;100.00;100512.38;4994053;28;20029;-75
2023/12/09 05:11:04;;;;;;;191.20;35.15;;;;;;;1.40;100.00;100520.03;5028228;28;20032;-75
2023/12/09 05:13:29;;;;;;;284.45;44.60;;;;;;;1.30;100.00;100519.84;5019855;28;20100;-76
2023/12/09 05:15:55;;;;;;;273.77;42.75;;;;;;;1.34;100.00;100536.28;5028231;28;20025;-76
2023/12/09 05:18:20;;;;;;;300.50;42.63;;;;;;;1.40;100.00;100534.03;5026876;28;20037;-76
2023/12/09 05:20:46;;;;;;;217.00;42.10;;;;;;;1.56;100.00;100536.41;5027684;28;20299;-76
2023/12/09 05:23:11;;;;;;;286.48;49.25;;;;;;;1.62;100.00;100524.63;5027568;28;20480;-76
2023/12/09 05:25:37;;;;;;;293.45;47.17;;;;;;;1.53;100.00;100515.59;5010251;28;20448;-76
2023/12/09 05:28:02;;;;;;;266.02;44.97;;;;;;;1.62;100.00;100520.19;5009479;28;20433;-76
2023/12/09 05:30:28;;;;;;;247.55;43.58;;;;;;;1.53;100.00;100512.97;5005501;28;20033;-76
2023/12/09 05:32:53;;;;;;;324.08;48.80;;;;;;;1.63;100.00;100515.75;5000883;28;20033;-76
2023/12/09 05:35:18;;;;;;;452.10;56.25;;;;;;;1.43;100.00;100510.16;5014286;28;20479;-75
2023/12/09 05:37:44;;;;;;;347.35;52.03;;;;;;;1.48;100.00;100510.66;4992304;28;20038;-76
2023/12/09 05:40:10;;;;;;;502.15;58.45;;;;;;;1.44;100.00;100509.19;5010061;28;20033;-76
2023/12/09 05:42:35;;;;;;;428.70;51.28;;;;;;;1.46;100.00;100509.94;5026906;28;20021;-76
2023/12/09 05:45:00;;;;;;;433.13;49.58;;;;;;;1.48;100.00;100515.09;5027524;28;20515;-76
2023/12/09 05:47:26;;;;;;;346.50;48.03;;;;;;;1.49;100.00;100516.75;5009775;28;20045;-76
2023/12/09 05:49:51;;;;;;;328.83;44.25;;;;;;;1.40;100.00;100506.88;5026257;28;20096;-76
2023/12/09 05:52:17;;;;;;;424.30;55.95;;;;;;;1.55;100.00;100516.31;5026375;28;20071;-75
2023/12/09 05:54:42;;;;;;;209.20;41.38;;;;;;;1.50;100.00;100515.81;5027347;28;20448;-76
2023/12/09 05:57:07;;;;;;;483.02;56.65;;;;;;;1.45;100.00;100504.75;5009528;28;20586;-75
2023/12/09 05:59:33;;;;;;;465.35;54.72;;;;;;;1.38;100.00;100503.53;5008880;28;20033;-75
2023/12/09 06:01:58;;;;;;;437.42;58.70;;;;;;;1.46;100.00;100503.81;5002169;28;20030;-75
2023/12/09 06:04:24;;;;;;;446.98;60.97;;;;;;;1.44;100.00;100506.56;5009552;28;20124;-75
2023/12/09 06:06:49;;;;;;;435.45;50.25;;;;;;;1.47;100.00;100508.13;5001500;28;20033;-75
2023/12/09 06:09:15;;;;;;;195.45;40.75;;;;;;;1.54;100.00;100505.91;5022386;28;20033;-76
2023/12/09 06:11:40;;;;;;;354.13;53.57;;;;;;;1.48;100.00;100504.56;5009131;28;20136;-75
2023/12/09 06:14:07;;;;;;;355.27;50.03;;;;;;;1.58;100.00;100502.09;5025644;28;20289;-75
2023/12/09 06:16:32;;;;;;;376.33;53.90;;;;;;;1.60;100.00;100494.94;5026830;28;20029;-75
2023/12/09 06:18:58;;;;;;;426.27;52.28;;;;;;;1.51;100.00;100495.59;5009370;28;20040;-77
2023/12/09 06:21:25;;;;;;;286.80;43.95;;;;;;;1.63;100.00;100506.06;5026767;28;20056;-75
2023/12/09 06:23:51;;;;;;;401.42;53.25;;;;;;;1.50;100.00;100500.03;5008793;28;20037;-75
2023/12/09 06:26:16;;;;;;;;;;;;;;;1.64;100.00;100507.78;5004916;28;20029;-75
2023/12/09 06:28:42;;;;;;;326.13;50.50;;;;;;;1.71;100.00;100508.19;5008718;28;19917;-75
2023/12/09 06:31:10;;;;;;;382.45;50.25;;;;;;;1.77;100.00;100509.50;5009031;28;20365;-77
2023/12/09 06:33:35;;;;;;;387.70;52.70;;;;;;;1.71;100.00;100500.28;5025428;28;20934;-75
2023/12/09 06:36:01;;;;;;;335.08;47.88;;;;;;;1.89;100.00;100495.44;5006969;28;20041;-75
2023/12/09 06:38:26;;;;;;;291.15;52.08;;;;;;;1.86;100.00;100493.03;4990647;28;20038;-75
2023/12/09 06:40:51;;;;;;;248.73;46.75;;;;;;;1.83;100.00;100486.22;5007754;28;20064;-75
2023/12/09 06:43:17;;;;;;;288.42;42.70;;;;;;;1.85;100.00;100484.31;5016477;28;20120;-75
2023/12/09 06:45:42;;;;;;;476.05;65.03;;;;;;;1.84;100.00;100487.03;5025197;28;20060;-75
2023/12/09 06:48:07;;;;;;;286.88;48.65;;;;;;;1.82;100.00;100492.41;5003906;28;20440;-75
2023/12/09 06:50:33;;;;;;;212.68;40.47;;;;;;;1.94;100.00;100498.56;5005893;28;20385;-75
2023/12/09 06:53:01;;;;;;;425.60;64.35;;;;;;;2.00;100.00;100497.28;5022607;28;20064;-76
2023/12/09 06:55:27;;;;;;;339.65;52.63;;;;;;;1.99;100.00;100501.72;5007141;28;20041;-75
2023/12/09 06:57:53;;;;;;;302.33;47.15;;;;;;;2.06;100.00;100504.72;4979582;28;20018;-75
2023/12/09 07:00:19;;;;;;;;;;;;;;;2.05;100.00;100496.00;5005647;28;20044;-75
2023/12/09 07:02:44;;;;;;;318.85;48.30;;;;;;;2.04;100.00;100491.69;4997316;28;19913;-76
2023/12/09 07:05:13;;;;;;;213.98;41.78;;;;;;;2.01;100.00;100489.25;5025353;28;20033;-76
2023/12/09 07:07:40;;;;;;;207.25;43.78;;;;;;;2.10;100.00;100479.84;5008446;28;20036;-76
2023/12/09 07:10:06;;;;;;;315.23;50.80;;;;;;;2.13;100.00;100476.13;5026491;28;20601;-75
2023/12/09 07:12:32;;;;;;;327.38;49.17;;;;;;;1.90;100.00;100461.13;5008200;28;20033;-75
2023/12/09 07:14:59;;;;;;;285.52;49.25;;;;;;;2.02;100.00;100475.16;5024947;28;20080;-76
2023/12/09 07:17:25;;;;;;;173.35;41.08;;;;;;;2.06;100.00;100468.72;5026023;28;20025;-76
2023/12/09 07:19:52;;;;;;;212.25;46.53;;;;;;;2.02;100.00;100469.88;5025859;28;20076;-75
2023/12/09 07:22:21;;;;;;;418.65;55.28;;;;;;;2.06;100.00;100468.72;5025760;28;20061;-75
2023/12/09 07:24:46;;;;;;;327.42;52.70;;;;;;;2.11;100.00;100468.38;5024411;28;20037;-76
2023/12/09 07:27:12;;;;;;;282.55;49.33;;;;;;;2.15;100.00;100479.50;5024607;28;20037;-76
2023/12/09 07:29:37;;;;;;;340.40;53.47;;;;;;;1.97;100.00;100458.88;5025820;28;20040;-76
2023/12/09 07:32:04;;;;;;;359.10;59.23;;;;;;;1.97;100.00;100468.56;5008406;28;20494;-75
2023/12/09 07:34:29;;;;;;;227.50;43.53;;;;;;;2.11;100.00;100469.22;5008411;28;20534;-76
2023/12/09 07:36:55;;;;;;;260.25;44.60;;;;;;;2.01;100.00;100462.94;5008176;28;20392;-75
2023/12/09 07:39:20;;;;;;;246.70;47.75;;;;;;;2.14;100.00;100467.31;5025993;28;20119;-75
2023/12/09 07:41:50;;;;;;;280.03;46.67;;;;;;;2.08;100.00;100458.91;5007480;28;20095;-75
2023/12/09 07:44:15;;;;;;;362.38;52.55;;;;;;;2.14;100.00;100459.41;4999008;28;20792;-76
2023/12/09 07:46:41;;;;;;;357.80;51.75;;;;;;;2.11;100.00;100458.66;5011994;28;20064;-76
2023/12/09 07:49:07;;;;;;;282.23;48.87;;;;;;;2.16;100.00;100449.59;4992438;28;20045;-75
2023/12/09 07:51:32;;;;;;;360.33;53.78;;;;;;;2.11;100.00;100450.78;4993040;28;20034;-75
2023/12/09 07:53:57;;;;;;;241.93;49.88;;;;;;;2.17;100.00;100451.25;5018707;28;20585;-76
2023/12/09 07:56:23;;;;;;;415.48;56.65;;;;;;;2.14;100.00;100465.50;4993372;28;20030;-76
2023/12/09 07:58:48;;;;;;;293.85;54.85;;;;;;;2.24;100.00;100466.47;4983888;28;20086;-76
2023/12/09 08:01:13;;;;;;;228.35;39.55;;;;;;;2.18;100.00;100468.72;4994499;28;20046;-76
2023/12/09 08:03:39;;;;;;;306.67;51.45;;;;;;;2.27;100.00;100478.56;4990419;28;20116;-76
2023/12/09 08:06:04;;;;;;;214.60;43.47;;;;;;;2.26;100.00;100482.19;5011664;28;20025;-75
2023/12/09 08:08:29;;;;;;;324.13;52.75;;;;;;;2.16;100.00;100475.94;4992815;28;21178;-76
2023/12/09 08:10:55;;;;;;;316.63;55.10;;;;;;;2.14;100.00;100473.41;4992742;28;20038;-77
2023/12/09 08:13:21;;;;;;;347.50;54.03;;;;;;;2.04;100.00;100470.63;5010496;28;20350;-76
2023/12/09 08:15:46;;;;;;;317.27;53.27;;;;;;;2.24;100.00;100481.44;5011974;28;20053;-76
2023/12/09 08:18:11;;;;;;;347.70;53.17;;;;;;;2.23;100.00;100482.41;5010215;28;20066;-76
2023/12/09 08:20:37;;;;;;;213.77;46.20;;;;;;;2.24;100.00;100478.81;4993074;28;20084;-75
2023/12/09 08:23:03;;;;;;;250.27;47.35;;;;;;;2.31;100.00;100485.31;5019361;28;20300;-76
2023/12/09 08:25:29;;;;;;;292.02;53.35;;;;;;;2.44;100.00;100478.16;5007733;28;20041;-76
2023/12/09 08:27:54;;;;;;;272.38;52.58;;;;;;;2.45;100.00;100473.72;5024397;28;20477;-76
2023/12/09 08:30:20;;;;;;;205.68;42.78;;;;;;;2.41;100.00;100472.25;5021284;28;20223;-76
2023/12/09 08:32:45;;;;;;;256.65;46.65;;;;;;;2.50;100.00;100468.94;5004100;28;20045;-77
2023/12/09 08:35:12;;;;;;;262.60;47.30;;;;;;;2.49;100.00;100468.09;5006979;28;20120;-76
2023/12/09 08:37:38;;;;;;;213.05;45.95;;;;;;;2.62;100.00;100469.78;5009505;28;20277;-76
2023/12/09 08:40:12;;;;;;;;;;;;;;;2.42;100.00;100456.34;4993520;28;20029;-76
2023/12/09 08:42:43;;;;;;;243.67;48.13;;;;;;;2.52;100.00;100459.94;5009423;28;20297;-76
2023/12/09 08:45:11;;;;;;;275.85;48.13;;;;;;;2.52;100.00;100449.41;5011217;28;20025;-76
2023/12/09 08:47:37;;;;;;;329.00;53.00;;;;;;;2.38;100.00;100452.25;5006272;28;20033;-76
2023/12/09 08:50:04;;;;;;;236.38;46.75;;;;;;;2.62;100.00;100457.47;4973802;28;20034;-76
2023/12/09 08:52:30;;;;;;;231.55;45.90;;;;;;;2.66;100.00;100463.31;4991508;28;20033;-76
2023/12/09 08:54:56;;;;;;;209.82;46.40;;;;;;;2.58;100.00;100456.03;5011643;28;20415;-76
2023/12/09 08:57:22;;;;;;;185.60;42.38;;;;;;;2.64;100.00;100460.81;5009611;28;20113;-76
2023/12/09 08:59:48;;;;;;;260.17;50.97;;;;;;;2.56;100.00;100446.56;5004676;28;20030;-76
2023/12/09 09:02:13;;;;;;;295.08;50.28;;;;;;;2.49;100.00;100435.66;5006357;28;20025;-76
2023/12/09 09:04:38;;;;;;;313.67;51.63;;;;;;;2.63;100.00;100445.13;4999589;28;20079;-76
2023/12/09 09:07:04;;;;;;;255.07;49.47;;;;;;;2.54;100.00;100436.94;4998298;28;20288;-76
2023/12/09 09:09:29;;;;;;;248.32;44.63;;;;;;;2.73;100.00;100432.91;4995178;28;20042;-76
2023/12/09 09:11:54;;;;;;;252.10;50.57;;;;;;;2.82;100.00;100433.97;4996963;28;20246;-76
2023/12/09 09:14:20;;;;;;;186.77;43.97;;;;;;;2.83;100.00;100441.75;4997460;28;20892;-76
2023/12/09 09:16:45;;;;;;;255.40;53.25;;;;;;;2.94;100.00;100435.66;4979652;28;20385;-76
2023/12/09 09:19:10;;;;;;;208.50;47.13;;;;;;;2.89;100.00;100438.66;4996921;28;20060;-76
2023/12/09 09:21:36;;;;;;;191.67;43.53;;;;;;;2.81;100.00;100441.06;4994559;28;20359;-76
2023/12/09 09:24:02;;;;;;;202.73;41.50;;;;;;;2.99;100.00;100440.56;5015479;28;20280;-76
2023/12/09 09:26:27;;;;;;;;;;;;;;;2.92;100.00;100434.94;4992238;28;20390;-76
2023/12/09 09:28:52;;;;;;;260.35;45.60;;;;;;;2.73;100.00;100420.53;4993505;28;19913;-76
2023/12/09 09:31:18;;;;;;;223.00;43.30;;;;;;;2.86;100.00;100420.44;5016243;28;20084;-78
2023/12/09 09:33:43;;;;;;;252.67;48.10;;;;;;;2.78;100.00;100425.47;4998729;28;20343;-77
2023/12/09 09:36:09;;;;;;;249.10;48.80;;;;;;;2.62;100.00;100409.16;4999689;28;20296;-75
2023/12/09 09:38:34;;;;;;;209.65;48.90;;;;;;;2.79;100.00;100413.97;5002000;28;20284;-76
2023/12/09 09:41:05;;;;;;;212.77;44.88;;;;;;;2.73;100.00;100404.72;5011822;28;20129;-76
2023/12/09 09:43:39;;;;;;;202.05;44.90;;;;;;;2.94;100.00;100414.56;5010024;28;20041;-76
2023/12/09 09:46:07;;;;;;;206.70;44.67;;;;;;;2.86;100.00;100412.53;5028000;28;20037;-76
2023/12/09 09:48:37;;;;;;;208.35;43.25;;;;;;;2.68;100.00;100385.81;5001943;28;20515;-76
2023/12/09 09:51:05;;;;;;;196.73;45.90;;;;;;;2.80;100.00;100386.63;5027865;28;20152;-76
2023/12/09 09:53:45;;;;;;;196.52;45.47;;;;;;;2.91;100.00;100393.72;5025954;28;20128;-76
2023/12/09 09:56:11;;;;;;;233.15;50.15;;;;;;;2.80;100.00;100380.53;5005119;28;20048;-76
2023/12/09 09:58:37;;;;;;;;;;;;;;;2.98;100.00;100384.34;5009596;28;20032;-76
2023/12/09 10:01:04;;;;;;;155.38;41.08;;;;;;;2.97;100.00;100377.38;5005122;28;19917;-76
2023/12/09 10:03:30;;;;;;;174.80;48.15;;;;;;;3.05;100.00;100379.44;5004932;28;20121;-76
2023/12/09 10:05:55;;;;;;;172.48;43.40;;;;;;;2.99;100.00;100383.38;5024835;28;20117;-76
2023/12/09 10:08:21;;;;;;;180.25;45.10;;;;;;;2.85;100.00;100376.56;5003744;28;20037;-76
2023/12/09 10:10:46;;;;;;;167.23;42.90;;;;;;;2.90;100.00;100379.69;5026032;28;20591;-76
2023/12/09 10:13:12;;;;;;;187.15;44.33;;;;;;;2.86;100.00;100375.63;5021232;28;20284;-76
2023/12/09 10:15:37;;;;;;;188.68;42.65;;;;;;;2.91;100.00;100372.59;5008840;28;20037;-76
2023/12/09 10:18:03;;;;;;;163.43;40.30;;;;;;;3.11;100.00;100366.59;5025284;28;20151;-76
2023/12/09 10:20:30;;;;;;;189.18;43.42;;;;;;;3.05;100.00;100358.31;5026148;28;20080;-76
2023/12/09 10:22:55;;;;;;;157.38;41.97;;;;;;;3.04;100.00;100357.47;5007121;28;20033;-76
2023/12/09 10:25:24;;;;;;;151.95;41.33;;;;;;;3.13;100.00;100354.09;5001884;28;20056;-76
2023/12/09 10:27:50;;;;;;;179.50;43.55;;;;;;;2.98;100.00;100351.88;5020259;28;20034;-76
2023/12/09 10:30:18;;;;;;;;;;;;;;;3.04;100.00;100348.72;5003181;28;20033;-76
2023/12/09 10:32:44;;;;;;;152.57;41.60;;;;;;;3.04;100.00;100340.81;5017347;28;19913;-76
2023/12/09 10:35:10;;;;;;;;;;;;;;;3.15;100.00;100344.25;5009631;28;20030;-76
2023/12/09 10:37:36;;;;;;;166.60;42.10;;;;;;;3.17;100.00;100344.13;5007336;28;19924;-76
2023/12/09 10:40:06;;;;;;;137.02;39.30;;;;;;;3.10;100.00;100341.16;5006675;28;20025;-76
2023/12/09 10:42:32;;;;;;;149.80;43.70;;;;;;;3.06;100.00;100336.25;5002535;28;20480;-76
2023/12/09 10:44:57;;;;;;;137.73;39.53;;;;;;;3.23;100.00;100335.72;4990132;28;20031;-76
2023/12/09 10:47:24;;;;;;;141.40;40.83;;;;;;;3.26;100.00;100332.84;5007128;28;20037;-77
2023/12/09 10:49:51;;;;;;;133.95;40.58;;;;;;;3.32;100.00;100315.66;5024101;28;20033;-76
2023/12/09 10:52:17;;;;;;;174.70;43.70;;;;;;;3.11;100.00;100311.19;5026136;28;20037;-76
2023/12/09 10:54:42;;;;;;;139.70;41.90;;;;;;;3.13;100.00;100301.31;4990264;28;20036;-76
2023/12/09 10:57:08;;;;;;;136.57;38.23;;;;;;;3.20;100.00;100291.13;5007068;28;20037;-77
2023/12/09 10:59:34;;;;;;;142.10;42.65;;;;;;;3.18;100.00;100287.75;5007849;28;20288;-77